Albert, New Mexico
Current Conditions -  °F | °C
As of 8:53 AM on Wednesday 22 Oct 2014 (Local Time) from KTCC Reporting Station
Clear Clear  
Wind Chill: 17°   Ceiling: Unl
Heat Index: 17°   Visibility: 10mi
Dew Point: 12°   Wind: 18mph
Humidity: 72%   Direction: 210°SSW
Pressure: 30.1"   Gusts: NA
Location:  35.7181°N, 103.591°W
Report Text: KTCC 221453Z AUTO 21016KT 10SM CLR 17/12 A3010 RMK AO2 SLP153 T01720122 53007
Loading
Personal Weather Stations






























Interactive Weather Map
Tropical Storm Tracking
New forecast layout! Learn more

10-Day Weather Forecast

Advertisements
Track Severe Weather on mobile